sensor_id;sensor_type;location;lat;lon;timestamp;pressure;altitude;pressure_sealevel;temperature;humidity
54588;BME280;40484;50.198;19.576;2022-09-06T08:14:27;102445.90;;;21.72;35.11
54588;BME280;40484;50.198;19.576;2022-09-06T08:19:29;102442.59;;;21.78;34.56
54588;BME280;40484;50.198;19.576;2022-09-06T08:24:30;102426.24;;;21.70;33.97
54588;BME280;40484;50.198;19.576;2022-09-06T08:29:34;102433.64;;;21.80;35.11
54588;BME280;40484;50.198;19.576;2022-09-06T08:34:36;102427.80;;;21.66;33.40
54588;BME280;40484;50.198;19.576;2022-09-06T08:39:38;102426.99;;;21.64;33.53
54588;BME280;40484;50.198;19.576;2022-09-06T08:44:44;102425.76;;;21.93;34.28
54588;BME280;40484;50.198;19.576;2022-09-06T08:50:01;102419.51;;;21.97;33.19
54588;BME280;40484;50.198;19.576;2022-09-06T09:00:21;102425.55;;;21.92;32.20
54588;BME280;40484;50.198;19.576;2022-09-06T09:05:28;102423.22;;;21.93;33.42
54588;BME280;40484;50.198;19.576;2022-09-06T09:10:33;102417.51;;;22.02;33.31
54588;BME280;40484;50.198;19.576;2022-09-06T09:15:34;102414.83;;;22.28;33.93
54588;BME280;40484;50.198;19.576;2022-09-06T09:21:01;102411.54;;;22.67;33.79
54588;BME280;40484;50.198;19.576;2022-09-06T09:26:05;102410.20;;;22.78;33.57
54588;BME280;40484;50.198;19.576;2022-09-06T09:31:06;102405.87;;;22.72;33.11
54588;BME280;40484;50.198;19.576;2022-09-06T09:36:11;102390.50;;;22.61;33.61
54588;BME280;40484;50.198;19.576;2022-09-06T09:41:32;102395.27;;;22.49;33.01
54588;BME280;40484;50.198;19.576;2022-09-06T09:46:35;102381.30;;;22.64;32.83
54588;BME280;40484;50.198;19.576;2022-09-06T09:51:43;102374.26;;;22.82;32.23
54588;BME280;40484;50.198;19.576;2022-09-06T09:56:46;102368.57;;;22.81;32.36
54588;BME280;40484;50.198;19.576;2022-09-06T10:01:49;102358.36;;;22.90;31.94
54588;BME280;40484;50.198;19.576;2022-09-06T10:06:51;102356.13;;;23.11;33.63
54588;BME280;40484;50.198;19.576;2022-09-06T10:11:57;102350.12;;;23.29;32.21
54588;BME280;40484;50.198;19.576;2022-09-06T10:16:59;102342.93;;;23.20;31.56
54588;BME280;40484;50.198;19.576;2022-09-06T10:22:12;102333.48;;;23.38;32.21
54588;BME280;40484;50.198;19.576;2022-09-06T10:27:05;102333.23;;;23.68;31.84
54588;BME280;40484;50.198;19.576;2022-09-06T10:32:40;102333.22;;;23.62;30.16
54588;BME280;40484;50.198;19.576;2022-09-06T10:43:18;102330.54;;;23.74;31.83
54588;BME280;40484;50.198;19.576;2022-09-06T10:48:31;102320.02;;;24.04;32.23
54588;BME280;40484;50.198;19.576;2022-09-06T10:58:42;102314.60;;;24.27;32.00
54588;BME280;40484;50.198;19.576;2022-09-06T11:03:43;102311.97;;;24.67;30.09
54588;BME280;40484;50.198;19.576;2022-09-06T11:08:49;102327.54;;;24.84;29.94
54588;BME280;40484;50.198;19.576;2022-09-06T11:13:49;102328.00;;;24.82;30.30
54588;BME280;40484;50.198;19.576;2022-09-06T11:19:02;102325.42;;;24.33;30.25
54588;BME280;40484;50.198;19.576;2022-09-06T11:24:31;102328.57;;;24.22;30.86
54588;BME280;40484;50.198;19.576;2022-09-06T11:29:31;102320.22;;;24.50;31.44
54588;BME280;40484;50.198;19.576;2022-09-06T11:34:34;102303.22;;;24.75;30.73
54588;BME280;40484;50.198;19.576;2022-09-06T11:39:40;102304.87;;;25.17;31.02
54588;BME280;40484;50.198;19.576;2022-09-06T11:44:51;102301.94;;;25.32;29.90
54588;BME280;40484;50.198;19.576;2022-09-06T11:49:53;102305.33;;;25.33;29.30
54588;BME280;40484;50.198;19.576;2022-09-06T11:54:55;102302.13;;;25.27;30.26
54588;BME280;40484;50.198;19.576;2022-09-06T12:00:01;102296.45;;;25.37;29.43
54588;BME280;40484;50.198;19.576;2022-09-06T12:05:07;102297.36;;;25.29;29.26
54588;BME280;40484;50.198;19.576;2022-09-06T12:15:43;102292.67;;;25.13;30.59
54588;BME280;40484;50.198;19.576;2022-09-06T12:26:51;102285.62;;;25.19;30.21
54588;BME280;40484;50.198;19.576;2022-09-06T12:31:58;102268.54;;;25.26;29.74
54588;BME280;40484;50.198;19.576;2022-09-06T12:37:06;102256.04;;;25.52;30.10
54588;BME280;40484;50.198;19.576;2022-09-06T12:42:12;102258.19;;;26.04;30.70
54588;BME280;40484;50.198;19.576;2022-09-06T12:52:25;102250.92;;;26.05;28.70
54588;BME280;40484;50.198;19.576;2022-09-06T12:57:26;102260.85;;;25.87;29.47
54588;BME280;40484;50.198;19.576;2022-09-06T13:02:37;102249.09;;;25.50;29.16
54588;BME280;40484;50.198;19.576;2022-09-06T13:08:03;102248.59;;;25.36;29.97
54588;BME280;40484;50.198;19.576;2022-09-06T13:13:05;102250.17;;;25.39;30.08
54588;BME280;40484;50.198;19.576;2022-09-06T13:18:33;102236.48;;;25.57;29.26
54588;BME280;40484;50.198;19.576;2022-09-06T13:23:43;102233.30;;;25.67;30.02
54588;BME280;40484;50.198;19.576;2022-09-06T13:28:45;102237.44;;;25.65;30.49
54588;BME280;40484;50.198;19.576;2022-09-06T13:33:57;102232.82;;;25.58;30.17
54588;BME280;40484;50.198;19.576;2022-09-06T13:38:59;102226.18;;;25.53;30.24
54588;BME280;40484;50.198;19.576;2022-09-06T13:49:13;102214.65;;;26.16;30.12
